createdAt,value
2023-04-07T00:01:10.044Z,9.30
2023-04-07T00:03:41.111Z,9.30
2023-04-07T00:06:10.538Z,9.30
2023-04-07T00:08:38.855Z,9.20
2023-04-07T00:11:08.843Z,9.20
2023-04-07T00:13:37.121Z,9.20
2023-04-07T00:16:07.189Z,9.20
2023-04-07T00:18:35.534Z,9.10
2023-04-07T00:21:03.819Z,9.10
2023-04-07T00:23:32.190Z,9.00
2023-04-07T00:26:01.024Z,9.00
2023-04-07T00:28:29.330Z,9.00
2023-04-07T00:30:57.658Z,8.90
2023-04-07T00:33:27.522Z,8.90
2023-04-07T00:35:57.974Z,8.90
2023-04-07T00:38:27.280Z,8.80
2023-04-07T00:41:00.110Z,8.70
2023-04-07T00:43:28.692Z,8.70
2023-04-07T00:45:57.728Z,8.70
2023-04-07T00:48:27.554Z,8.70
2023-04-07T00:50:56.304Z,8.80
2023-04-07T00:53:24.828Z,8.90
2023-04-07T00:55:53.438Z,9.00
2023-04-07T00:58:21.841Z,9.00
2023-04-07T01:00:56.475Z,9.00
2023-04-07T01:03:32.341Z,9.10
2023-04-07T01:06:03.097Z,9.00
2023-04-07T01:08:39.607Z,9.00
2023-04-07T01:11:11.815Z,9.00
2023-04-07T01:13:44.509Z,8.90
2023-04-07T01:16:28.489Z,8.90
2023-04-07T01:19:02.853Z,9.00
2023-04-07T01:21:35.161Z,8.90
2023-04-07T01:24:21.446Z,8.80
2023-04-07T01:26:51.691Z,8.70
2023-04-07T01:29:36.841Z,8.60
2023-04-07T01:32:08.945Z,8.60
2023-04-07T01:34:39.805Z,8.70
2023-04-07T01:37:09.934Z,8.80
2023-04-07T01:39:39.738Z,8.90
2023-04-07T01:42:08.865Z,8.80
2023-04-07T01:44:39.505Z,8.80
2023-04-07T01:47:08.297Z,8.90
2023-04-07T01:49:38.122Z,8.90
2023-04-07T01:52:08.090Z,8.90
2023-04-07T01:54:37.140Z,8.90
2023-04-07T01:57:06.040Z,8.90
2023-04-07T01:59:34.428Z,8.90
2023-04-07T02:02:06.288Z,8.90
2023-04-07T02:04:41.620Z,8.80
2023-04-07T02:07:15.445Z,8.80
2023-04-07T02:09:49.481Z,8.80
2023-04-07T02:12:18.661Z,8.70
2023-04-07T02:15:00.074Z,8.70
2023-04-07T02:17:31.281Z,8.60
2023-04-07T02:20:02.530Z,8.50
2023-04-07T02:22:31.551Z,8.40
2023-04-07T02:24:59.951Z,8.40
2023-04-07T02:27:28.734Z,8.40
2023-04-07T02:29:57.106Z,8.30
2023-04-07T02:32:25.664Z,8.30
2023-04-07T02:34:55.731Z,8.30
2023-04-07T02:37:24.096Z,8.20
2023-04-07T02:39:53.595Z,8.00
2023-04-07T02:42:22.013Z,8.00
2023-04-07T02:44:50.714Z,7.90
2023-04-07T02:47:19.119Z,7.90
2023-04-07T02:49:47.459Z,7.90
2023-04-07T02:52:17.332Z,7.90
2023-04-07T02:54:45.801Z,7.90
2023-04-07T02:57:14.351Z,8.00
2023-04-07T02:59:42.792Z,7.90
2023-04-07T03:02:13.561Z,7.80
2023-04-07T03:04:42.583Z,7.80
2023-04-07T03:07:10.868Z,7.90
2023-04-07T03:09:41.106Z,7.90
2023-04-07T03:12:09.407Z,7.90
2023-04-07T03:14:38.924Z,8.00
2023-04-07T03:17:07.307Z,7.90
2023-04-07T03:19:37.409Z,7.60
2023-04-07T03:22:05.696Z,7.40
2023-04-07T03:24:39.641Z,7.30
2023-04-07T03:27:09.576Z,7.20
2023-04-07T03:29:43.108Z,7.10
2023-04-07T03:32:14.105Z,7.00
2023-04-07T03:34:42.508Z,7.10
2023-04-07T03:37:10.917Z,7.10
2023-04-07T03:39:42.189Z,7.20
2023-04-07T03:42:34.949Z,7.10
2023-04-07T03:45:06.540Z,7.10
2023-04-07T03:47:37.188Z,7.10
2023-04-07T03:50:08.052Z,7.10
2023-04-07T03:52:43.866Z,7.20
2023-04-07T03:55:24.205Z,7.20
2023-04-07T03:57:58.512Z,7.20
2023-04-07T04:00:31.879Z,7.20
2023-04-07T04:03:08.833Z,7.10
2023-04-07T04:05:42.449Z,7.00
2023-04-07T04:08:14.909Z,6.80
2023-04-07T04:10:44.041Z,6.80
2023-04-07T04:13:14.323Z,6.60
2023-04-07T04:15:44.486Z,6.50
2023-04-07T04:18:16.694Z,6.50
2023-04-07T04:20:45.425Z,6.40
2023-04-07T04:23:14.010Z,6.40
2023-04-07T04:25:43.354Z,6.40
2023-04-07T04:28:15.191Z,6.50
2023-04-07T04:30:43.704Z,6.50
2023-04-07T04:33:12.035Z,6.50
2023-04-07T04:36:00.668Z,6.50
2023-04-07T04:38:33.125Z,6.50
2023-04-07T04:41:21.816Z,6.50
2023-04-07T04:43:53.624Z,6.50
2023-04-07T04:46:25.890Z,6.50
2023-04-07T04:48:54.473Z,6.50
2023-04-07T04:51:26.158Z,6.40
2023-04-07T04:54:00.656Z,6.40
2023-04-07T04:56:29.604Z,6.40
2023-04-07T04:58:59.337Z,6.40
2023-04-07T05:01:37.761Z,6.50
2023-04-07T05:04:10.733Z,6.60
2023-04-07T05:06:44.426Z,6.60
2023-04-07T05:09:15.825Z,6.80
2023-04-07T05:11:46.921Z,6.90
2023-04-07T05:14:17.461Z,6.90
2023-04-07T05:16:52.995Z,7.00
2023-04-07T05:19:24.688Z,7.10
2023-04-07T05:21:56.272Z,7.20
2023-04-07T05:24:28.484Z,7.30
2023-04-07T05:27:01.965Z,7.40
2023-04-07T05:29:33.615Z,7.50
2023-04-07T05:32:02.849Z,7.50
2023-04-07T05:34:32.770Z,7.60
2023-04-07T05:37:01.422Z,7.60
2023-04-07T05:39:29.926Z,7.70
2023-04-07T05:41:58.933Z,7.80
2023-04-07T05:44:28.847Z,7.80
2023-04-07T05:46:59.319Z,7.90
2023-04-07T05:49:29.965Z,8.00
2023-04-07T05:52:06.792Z,8.10
2023-04-07T05:54:41.558Z,8.10
2023-04-07T05:57:13.450Z,8.20
2023-04-07T05:59:46.491Z,8.30
2023-04-07T06:02:16.606Z,8.30
2023-04-07T06:04:47.499Z,8.40
2023-04-07T06:07:19.385Z,8.40
2023-04-07T06:09:47.855Z,8.40
2023-04-07T06:12:17.070Z,8.40
2023-04-07T06:14:52.746Z,8.50
2023-04-07T06:17:22.780Z,8.50
2023-04-07T06:19:51.326Z,8.50
2023-04-07T06:22:19.719Z,8.60
2023-04-07T06:24:48.046Z,8.60
2023-04-07T06:27:16.466Z,8.80
2023-04-07T06:29:44.856Z,8.80
2023-04-07T06:32:13.782Z,8.90
2023-04-07T06:34:44.040Z,9.00
2023-04-07T06:37:12.548Z,9.10
2023-04-07T06:39:40.925Z,9.20
2023-04-07T06:42:09.284Z,9.40
2023-04-07T06:44:43.716Z,9.50
2023-04-07T06:47:12.295Z,9.50
2023-04-07T06:49:41.027Z,9.70
2023-04-07T06:52:10.729Z,9.80
2023-04-07T06:54:39.087Z,9.80
2023-04-07T06:57:12.229Z,10.00
2023-04-07T06:59:40.860Z,10.10
2023-04-07T07:02:09.404Z,10.20
2023-04-07T07:04:37.905Z,10.20
2023-04-07T07:07:06.971Z,10.20
2023-04-07T07:09:36.755Z,10.30
2023-04-07T07:12:06.404Z,10.40
2023-04-07T07:14:34.809Z,10.60
2023-04-07T07:17:03.144Z,10.70
2023-04-07T07:19:31.548Z,10.80
2023-04-07T07:21:59.867Z,10.70
2023-04-07T07:24:29.291Z,10.80
2023-04-07T07:27:01.975Z,10.90
2023-04-07T07:29:32.988Z,10.90
2023-04-07T07:32:01.364Z,10.90
2023-04-07T07:34:29.725Z,11.10
2023-04-07T07:36:58.024Z,11.30
2023-04-07T07:39:26.399Z,11.40
2023-04-07T07:41:55.465Z,11.60
2023-04-07T07:44:25.278Z,11.60
2023-04-07T07:46:53.676Z,11.80
2023-04-07T07:49:22.164Z,11.90
2023-04-07T07:51:50.497Z,12.00
2023-04-07T07:54:18.867Z,12.00
2023-04-07T07:56:47.248Z,12.10
2023-04-07T07:59:17.297Z,12.10
2023-04-07T08:01:47.487Z,12.30
2023-04-07T08:04:16.031Z,12.50
2023-04-07T08:06:44.418Z,12.50
2023-04-07T08:09:12.799Z,12.60
2023-04-07T08:11:41.598Z,12.70
2023-04-07T08:14:10.054Z,12.70
2023-04-07T08:16:38.705Z,12.70
2023-04-07T08:19:08.435Z,12.80
2023-04-07T08:21:36.779Z,12.90
2023-04-07T08:24:05.660Z,12.80
2023-04-07T08:26:34.442Z,12.80
2023-04-07T08:29:02.833Z,12.90
2023-04-07T08:31:31.233Z,12.60
2023-04-07T08:33:59.628Z,12.50
2023-04-07T08:36:30.297Z,12.50
2023-04-07T08:38:59.106Z,12.40
2023-04-07T08:41:32.672Z,12.50
2023-04-07T08:44:02.902Z,12.70
2023-04-07T08:46:31.998Z,12.90
2023-04-07T08:49:01.968Z,13.10
2023-04-07T08:51:33.680Z,13.20
2023-04-07T08:54:06.973Z,13.20
2023-04-07T08:56:35.491Z,13.30
2023-04-07T08:59:04.161Z,13.40
2023-04-07T09:01:33.568Z,13.40
2023-04-07T09:04:04.135Z,13.50
2023-04-07T09:06:34.544Z,13.70
2023-04-07T09:09:03.676Z,13.60
2023-04-07T09:11:35.975Z,13.60
2023-04-07T09:14:04.536Z,13.70
2023-04-07T09:16:33.035Z,13.60
2023-04-07T09:19:01.399Z,13.50
2023-04-07T09:21:51.302Z,13.40
2023-04-07T09:24:23.493Z,13.40
2023-04-07T09:26:52.028Z,13.40
2023-04-07T09:29:21.752Z,13.30
2023-04-07T09:31:52.195Z,13.00
2023-04-07T09:34:29.056Z,12.90
2023-04-07T09:36:59.497Z,13.10
2023-04-07T09:39:28.237Z,13.30
2023-04-07T09:41:56.607Z,13.20
2023-04-07T09:44:26.136Z,13.30
2023-04-07T09:46:56.384Z,13.60
2023-04-07T09:49:25.465Z,13.80
2023-04-07T09:51:55.472Z,13.60
2023-04-07T09:54:39.503Z,13.70
2023-04-07T09:57:09.464Z,13.70
2023-04-07T09:59:39.234Z,13.70
2023-04-07T10:02:07.956Z,14.00
2023-04-07T10:04:36.509Z,14.40
2023-04-07T10:07:06.094Z,14.40
2023-04-07T10:09:34.461Z,14.50
2023-04-07T10:12:04.644Z,14.40
2023-04-07T10:14:34.146Z,14.30
2023-04-07T10:17:02.812Z,14.40
2023-04-07T10:19:34.137Z,14.30
2023-04-07T10:22:04.769Z,14.50
2023-04-07T10:24:51.518Z,14.80
2023-04-07T10:27:25.675Z,14.80
2023-04-07T10:29:55.400Z,14.80
2023-04-07T10:32:23.782Z,14.70
2023-04-07T10:35:02.363Z,14.80
2023-04-07T10:37:33.476Z,14.70
2023-04-07T10:40:30.346Z,14.60
2023-04-07T10:43:01.221Z,14.50
2023-04-07T10:46:05.901Z,14.60
2023-04-07T10:48:34.738Z,14.70
2023-04-07T10:51:17.899Z,14.70
2023-04-07T10:54:17.854Z,14.90
2023-04-07T10:57:14.794Z,14.90
2023-04-07T11:00:17.927Z,14.90
2023-04-07T11:02:46.843Z,14.50
2023-04-07T11:05:23.656Z,14.30
2023-04-07T11:07:57.880Z,14.40
2023-04-07T11:10:27.243Z,14.60
2023-04-07T11:13:07.644Z,14.90
2023-04-07T11:15:40.620Z,15.30
2023-04-07T11:18:20.229Z,15.40
2023-04-07T11:20:52.734Z,15.10
2023-04-07T11:23:23.264Z,14.90
2023-04-07T11:25:53.372Z,14.80
2023-04-07T11:28:21.687Z,14.90
2023-04-07T11:30:54.142Z,15.00
2023-04-07T11:33:23.831Z,15.30
2023-04-07T11:35:57.315Z,15.30
2023-04-07T11:38:27.531Z,15.20
2023-04-07T11:40:57.243Z,15.20
2023-04-07T11:43:27.377Z,15.20
2023-04-07T11:46:07.980Z,15.60
2023-04-07T11:48:37.327Z,15.90
2023-04-07T11:51:06.365Z,16.20
2023-04-07T11:53:38.117Z,16.40
2023-04-07T11:56:09.861Z,16.30
2023-04-07T11:58:38.788Z,15.80
2023-04-07T12:01:09.679Z,15.60
2023-04-07T12:03:39.036Z,15.50
2023-04-07T12:06:07.640Z,15.70
2023-04-07T12:08:40.637Z,15.70
2023-04-07T12:11:09.496Z,15.80
2023-04-07T12:13:38.697Z,15.90
2023-04-07T12:16:09.072Z,15.80
2023-04-07T12:18:37.757Z,15.80
2023-04-07T12:21:06.518Z,15.70
2023-04-07T12:23:34.905Z,16.10
2023-04-07T12:26:03.412Z,16.30
2023-04-07T12:28:32.565Z,16.00
2023-04-07T12:31:00.925Z,15.80
2023-04-07T12:33:30.642Z,15.80
2023-04-07T12:35:59.603Z,15.60
2023-04-07T12:38:28.896Z,15.80
2023-04-07T12:41:03.414Z,16.00
2023-04-07T12:43:32.997Z,16.00
2023-04-07T12:46:01.374Z,15.80
2023-04-07T12:48:31.182Z,15.70
2023-04-07T12:50:59.526Z,15.70
2023-04-07T12:53:27.904Z,15.70
2023-04-07T12:55:56.279Z,15.80
2023-04-07T12:58:24.579Z,16.00
2023-04-07T13:00:54.083Z,16.20
2023-04-07T13:03:22.617Z,16.50
2023-04-07T13:05:55.067Z,16.70
2023-04-07T13:08:23.455Z,16.20
2023-04-07T13:10:53.016Z,15.80
2023-04-07T13:13:21.362Z,15.90
2023-04-07T13:15:49.728Z,16.10
2023-04-07T13:18:18.932Z,15.90
2023-04-07T13:20:54.926Z,15.90
2023-04-07T13:23:42.726Z,16.30
2023-04-07T13:26:12.171Z,16.40
2023-04-07T13:28:40.553Z,16.50
2023-04-07T13:31:10.994Z,16.90
2023-04-07T13:33:41.292Z,16.90
2023-04-07T13:36:10.439Z,17.00
2023-04-07T13:38:42.305Z,17.40
2023-04-07T13:41:10.685Z,18.10
2023-04-07T13:43:38.970Z,18.70
2023-04-07T13:46:17.214Z,19.50
2023-04-07T13:48:53.317Z,21.10
2023-04-07T13:51:21.598Z,22.10
2023-04-07T13:53:51.430Z,22.70
2023-04-07T13:56:19.825Z,21.90
2023-04-07T13:58:48.297Z,22.10
2023-04-07T14:01:16.662Z,23.70
2023-04-07T14:03:45.317Z,23.40
2023-04-07T14:06:13.856Z,24.40
2023-04-07T14:08:42.213Z,25.40
2023-04-07T14:11:11.932Z,25.20
2023-04-07T14:13:40.452Z,25.80
2023-04-07T14:16:09.284Z,24.90
2023-04-07T14:18:38.075Z,22.90
2023-04-07T14:21:06.627Z,24.10
2023-04-07T14:23:37.700Z,24.60
2023-04-07T14:26:21.425Z,24.40
2023-04-07T14:28:49.837Z,23.40
2023-04-07T14:31:18.352Z,23.40
2023-04-07T14:33:47.461Z,22.90
2023-04-07T14:36:16.895Z,23.10
2023-04-07T14:38:45.378Z,22.20
2023-04-07T14:41:13.829Z,21.60
2023-04-07T14:43:43.594Z,21.70
2023-04-07T14:46:12.330Z,21.30
2023-04-07T14:48:40.746Z,21.30
2023-04-07T14:51:13.903Z,20.90
2023-04-07T14:53:43.522Z,19.80
2023-04-07T14:56:11.889Z,18.20
2023-04-07T14:58:40.805Z,17.80
2023-04-07T15:01:10.675Z,17.10
2023-04-07T15:03:39.287Z,16.50
2023-04-07T15:06:11.142Z,16.40
2023-04-07T15:08:39.662Z,16.80
2023-04-07T15:11:08.717Z,17.20
2023-04-07T15:13:37.821Z,16.80
2023-04-07T15:16:12.154Z,15.90
2023-04-07T15:18:42.323Z,15.60
2023-04-07T15:21:11.933Z,15.60
2023-04-07T15:23:41.796Z,15.30
2023-04-07T15:26:11.044Z,15.30
2023-04-07T15:28:39.748Z,15.30
2023-04-07T15:31:09.073Z,15.20
2023-04-07T15:33:40.679Z,15.10
2023-04-07T15:36:09.785Z,15.00
2023-04-07T15:38:38.913Z,14.90
2023-04-07T15:41:07.469Z,14.60
2023-04-07T15:43:37.636Z,14.60
2023-04-07T15:46:06.095Z,14.60
2023-04-07T15:48:34.549Z,14.60
2023-04-07T15:51:04.326Z,14.30
2023-04-07T15:53:32.623Z,14.30
2023-04-07T15:56:00.909Z,14.20
2023-04-07T15:58:30.171Z,14.20
2023-04-07T16:00:58.544Z,14.30
2023-04-07T16:03:28.204Z,14.30
2023-04-07T16:05:57.135Z,14.30
2023-04-07T16:08:26.891Z,14.30
2023-04-07T16:10:55.190Z,14.20
2023-04-07T16:13:23.528Z,14.10
2023-04-07T16:15:56.249Z,14.00
2023-04-07T16:18:24.774Z,14.00
2023-04-07T16:20:53.186Z,14.10
2023-04-07T16:23:21.624Z,14.20
2023-04-07T16:25:51.477Z,14.60
2023-04-07T16:28:19.923Z,15.80
2023-04-07T16:30:48.185Z,16.70
2023-04-07T16:33:16.517Z,17.10
2023-04-07T16:35:46.254Z,17.60
2023-04-07T16:38:14.816Z,17.60
2023-04-07T16:41:00.761Z,17.10
2023-04-07T16:43:35.075Z,16.80
2023-04-07T16:46:05.224Z,16.30
2023-04-07T16:48:33.655Z,16.40
2023-04-07T16:51:02.005Z,16.50
2023-04-07T16:53:31.218Z,16.40
2023-04-07T16:55:59.539Z,16.10
2023-04-07T16:58:27.935Z,15.40
2023-04-07T17:00:57.681Z,14.70
2023-04-07T17:03:27.026Z,14.20
2023-04-07T17:05:55.542Z,13.70
2023-04-07T17:08:25.858Z,13.40
2023-04-07T17:10:54.314Z,13.00
2023-04-07T17:13:22.896Z,12.80
2023-04-07T17:15:51.298Z,12.70
2023-04-07T17:18:21.124Z,12.50
2023-04-07T17:20:49.461Z,12.30
2023-04-07T17:23:18.107Z,12.30
2023-04-07T17:25:46.422Z,12.30
2023-04-07T17:28:14.757Z,12.30
2023-04-07T17:30:43.422Z,12.30
2023-04-07T17:33:12.554Z,12.30
2023-04-07T17:35:42.465Z,12.30
2023-04-07T17:38:10.934Z,12.30
2023-04-07T17:40:39.240Z,12.20
2023-04-07T17:43:07.555Z,12.20
2023-04-07T17:45:36.026Z,12.10
2023-04-07T17:48:05.047Z,12.10
2023-04-07T17:50:34.518Z,12.10
2023-04-07T17:53:04.280Z,12.10
2023-04-07T17:55:33.169Z,12.10
2023-04-07T17:58:02.254Z,12.00
2023-04-07T18:00:30.931Z,12.00
2023-04-07T18:03:00.070Z,12.00
2023-04-07T18:05:30.970Z,11.90
2023-04-07T18:07:59.724Z,11.90
2023-04-07T18:10:30.386Z,11.90
2023-04-07T18:12:59.814Z,11.80
2023-04-07T18:15:28.144Z,11.70
2023-04-07T18:17:58.902Z,11.70
2023-04-07T18:20:27.745Z,11.70
2023-04-07T18:22:56.149Z,11.60
2023-04-07T18:25:24.497Z,11.60
2023-04-07T18:27:54.222Z,11.70
2023-04-07T18:30:22.815Z,11.80
2023-04-07T18:32:52.407Z,11.70
2023-04-07T18:35:21.966Z,11.80
2023-04-07T18:37:50.372Z,11.70
2023-04-07T18:40:18.817Z,11.70
2023-04-07T18:42:47.250Z,11.70
2023-04-07T18:45:17.028Z,11.70
2023-04-07T18:47:45.481Z,11.70
2023-04-07T18:50:14.019Z,11.50
2023-04-07T18:52:42.427Z,11.40
2023-04-07T18:55:11.344Z,11.30
2023-04-07T18:57:40.302Z,11.30
2023-04-07T19:00:09.914Z,11.10
2023-04-07T19:02:44.301Z,11.00
2023-04-07T19:05:14.040Z,11.00
2023-04-07T19:07:42.362Z,10.90
2023-04-07T19:10:10.944Z,10.70
2023-04-07T19:12:40.094Z,10.70
2023-04-07T19:15:10.792Z,10.50
2023-04-07T19:17:40.923Z,10.50
2023-04-07T19:20:10.183Z,10.40
2023-04-07T19:22:38.591Z,10.40
2023-04-07T19:25:08.278Z,10.40
2023-04-07T19:27:36.854Z,10.30
2023-04-07T19:30:05.761Z,10.20
2023-04-07T19:32:34.150Z,10.20
2023-04-07T19:35:03.900Z,10.10
2023-04-07T19:37:32.213Z,10.20
2023-04-07T19:40:03.221Z,10.10
2023-04-07T19:42:32.018Z,10.20
2023-04-07T19:45:02.449Z,10.20
2023-04-07T19:47:31.241Z,10.10
2023-04-07T19:49:59.540Z,10.10
2023-04-07T19:52:30.381Z,10.10
2023-04-07T19:54:59.760Z,10.10
2023-04-07T19:57:29.040Z,10.20
2023-04-07T19:59:57.874Z,10.20
2023-04-07T20:02:29.028Z,10.10
2023-04-07T20:04:58.866Z,10.00
2023-04-07T20:07:28.573Z,10.00
2023-04-07T20:09:57.448Z,9.90
2023-04-07T20:12:26.059Z,10.00
2023-04-07T20:14:54.375Z,9.90
2023-04-07T20:17:22.957Z,9.70
2023-04-07T20:19:54.395Z,9.60
2023-04-07T20:22:22.907Z,9.50
2023-04-07T20:24:52.606Z,9.50
2023-04-07T20:27:21.246Z,9.50
2023-04-07T20:29:49.567Z,9.60
2023-04-07T20:32:19.307Z,9.60
2023-04-07T20:34:48.309Z,9.60
2023-04-07T20:37:16.583Z,9.40
2023-04-07T20:39:44.961Z,9.30
2023-04-07T20:42:15.050Z,9.20
2023-04-07T20:44:43.818Z,9.20
2023-04-07T20:47:13.068Z,9.30
2023-04-07T20:49:43.664Z,9.30
2023-04-07T20:52:12.492Z,9.40
2023-04-07T20:54:42.719Z,9.40
2023-04-07T20:57:11.154Z,9.30
2023-04-07T20:59:40.885Z,9.30
2023-04-07T21:02:09.633Z,9.30
2023-04-07T21:04:38.369Z,9.30
2023-04-07T21:07:06.677Z,9.30
2023-04-07T21:09:35.067Z,9.20
2023-04-07T21:12:04.730Z,9.20
2023-04-07T21:14:33.099Z,9.20
2023-04-07T21:17:02.772Z,9.20
2023-04-07T21:19:32.185Z,9.20
2023-04-07T21:22:01.027Z,9.20
2023-04-07T21:24:29.827Z,9.10
2023-04-07T21:26:58.085Z,9.10
2023-04-07T21:29:30.309Z,8.90
2023-04-07T21:31:58.729Z,8.70
2023-04-07T21:34:28.513Z,8.50
2023-04-07T21:36:56.882Z,8.50
2023-04-07T21:39:25.234Z,8.40
2023-04-07T21:41:53.548Z,8.30
2023-04-07T21:44:21.867Z,8.20
2023-04-07T21:46:50.375Z,8.10
2023-04-07T21:49:22.196Z,8.10
2023-04-07T21:51:51.978Z,8.00
2023-04-07T21:54:20.326Z,8.00
2023-04-07T21:56:49.410Z,7.90
2023-04-07T21:59:18.266Z,7.90
2023-04-07T22:01:47.219Z,7.90
2023-04-07T22:04:16.074Z,7.90
2023-04-07T22:06:44.497Z,7.80
2023-04-07T22:09:14.184Z,7.70
2023-04-07T22:11:42.546Z,7.70
2023-04-07T22:14:10.888Z,7.70
2023-04-07T22:16:39.557Z,7.70
2023-04-07T22:19:07.977Z,7.80
2023-04-07T22:21:36.683Z,7.80
2023-04-07T22:24:05.092Z,7.80
2023-04-07T22:26:34.887Z,7.80
2023-04-07T22:29:03.204Z,7.90
2023-04-07T22:31:31.550Z,7.90
2023-04-07T22:33:59.880Z,7.90
2023-04-07T22:36:29.627Z,7.90
2023-04-07T22:38:58.105Z,8.00
2023-04-07T22:41:26.940Z,7.90
2023-04-07T22:43:57.057Z,8.00
2023-04-07T22:46:26.775Z,7.90
2023-04-07T22:48:55.192Z,7.90
2023-04-07T22:51:23.554Z,7.90
2023-04-07T22:53:51.884Z,8.00
2023-04-07T22:56:20.280Z,8.00
2023-04-07T22:58:48.733Z,8.00
2023-04-07T23:01:18.739Z,8.10
2023-04-07T23:03:47.259Z,8.10
2023-04-07T23:06:15.649Z,8.30
2023-04-07T23:08:43.978Z,8.40
2023-04-07T23:11:12.340Z,8.40
2023-04-07T23:13:40.639Z,8.30
2023-04-07T23:16:13.011Z,8.30
2023-04-07T23:18:43.016Z,8.30
2023-04-07T23:21:11.692Z,8.40
2023-04-07T23:23:40.049Z,8.40
2023-04-07T23:26:08.411Z,8.40
2023-04-07T23:28:36.714Z,8.40
2023-04-07T23:31:06.663Z,8.40
2023-04-07T23:33:36.225Z,8.40
2023-04-07T23:36:06.963Z,8.40
2023-04-07T23:38:36.373Z,8.40
2023-04-07T23:41:04.691Z,8.30
2023-04-07T23:43:33.561Z,8.20
2023-04-07T23:46:02.815Z,8.00
2023-04-07T23:48:32.590Z,7.90
2023-04-07T23:51:03.286Z,8.00
2023-04-07T23:53:33.108Z,7.90
2023-04-07T23:56:01.732Z,7.80
2023-04-07T23:58:30.160Z,7.70
